Cape Balder — V7KA5 — position and weather

sailwx.info

Track history (hours):
 
Tides and Currents Weather Stations Pressure Air Temp Water Temp Dewpoint Dewpoint Depression Visibility Wind Speed Wind Dir Waves Ship Positions

Cape Balder

Last reported at 2017-Mar-26 17:11 UTC. Time now 2017-Mar-28 21:39 UTC.
Position N 31°28' E 032°19'.

Length 274 m; draft 16.8 m.

Type: Ship. MMSI: 538005854.

Date/timePositionNaut miles runAvg speedWind from/ knotsBaromVisibWave heightAir tempDewpointWater temp
2017-Mar-26 17:11N 31°28' E 032°19'0 0.0
2017-Mar-26 12:30N 31°28' E 032°20'85 6.1
2017-Mar-25 22:33N 32°49' E 032°52'1913.1
2017-Mar-25 21:07N 33°08' E 032°56'713.1
2017-Mar-25 20:33N 33°15' E 032°58'2713.2
2017-Mar-25 18:33N 33°41' E 033°05'1313.2
2017-Mar-25 17:32N 33°54' E 033°08'1313.1
2017-Mar-25 16:34N 34°06' E 033°12'1313.0
2017-Mar-25 15:33N 34°19' E 033°15'9 8.4
2017-Mar-25 14:32N 34°27' E 033°17'0 0.2
2017-Mar-25 13:32N 34°27' E 033°17'0 0.1
2017-Mar-25 12:31N 34°27' E 033°17'1 1.1
2017-Mar-25 11:31N 34°27' E 033°16'4 3.6
2017-Mar-25 10:32N 34°24' E 033°14'2 1.6
2017-Mar-25 09:24N 34°22' E 033°12'1 0.6
2017-Mar-25 08:33N 34°22' E 033°13'1 0.5
2017-Mar-25 07:33N 34°22' E 033°13'1 0.5
2017-Mar-25 06:20N 34°22' E 033°14'0 0.5
2017-Mar-25 05:33N 34°21' E 033°14'0 0.4
2017-Mar-25 04:33N 34°21' E 033°14'0 0.3
2017-Mar-25 03:33N 34°21' E 033°15'0 0.1
2017-Mar-25 02:25N 34°21' E 033°15'0 0.1
2017-Mar-25 00:33N 34°21' E 033°15'0 0.1
2017-Mar-24 23:23N 34°21' E 033°15'4 1.4
2017-Mar-24 20:26N 34°25' E 033°14'3 3.8
2017-Mar-24 19:34N 34°28' E 033°13'3 2.6
2017-Mar-24 18:31N 34°31' E 033°13'0 0.1
2017-Mar-24 17:33N 34°31' E 033°13'0 0.2
2017-Mar-24 16:33N 34°30' E 033°13'0 0.3
2017-Mar-24 15:33N 34°30' E 033°13'0 0.4
2017-Mar-24 14:34N 34°30' E 033°13'1 0.6
2017-Mar-24 13:33N 34°29' E 033°13'1 0.7
2017-Mar-24 12:33N 34°29' E 033°14'1 0.6
2017-Mar-24 11:33N 34°28' E 033°14'1 1.2
2017-Mar-24 10:34N 34°27' E 033°14'4 3.4
2017-Mar-24 09:27N 34°23' E 033°15'4 2.3
2017-Mar-24 07:33N 34°19' E 033°16'5 4.0
2017-Mar-24 06:20N 34°24' E 033°14'3 4.4
2017-Mar-24 05:33N 34°27' E 033°13'2 2.0
2017-Mar-24 04:28N 34°29' E 033°14'2 2.5
2017-Mar-24 03:33N 34°30' E 033°17'10 9.6
2017-Mar-24 02:33N 34°21' E 033°19'0 0.3
2017-Mar-24 01:33N 34°21' E 033°19'0 0.2
2017-Mar-24 00:33N 34°21' E 033°19'0 0.1
2017-Mar-23 23:34N 34°21' E 033°19'0 0.1
2017-Mar-23 22:32N 34°21' E 033°19'0 0.3
2017-Mar-23 21:33N 34°21' E 033°19'0 0.2
2017-Mar-23 20:33N 34°22' E 033°19'6 0.4
2017-Mar-23 03:31N 34°28' E 033°21'4 0.5
2017-Mar-22 19:33N 34°26' E 033°25'2 0.7
2017-Mar-22 16:32N 34°24' E 033°26'1 0.7
2017-Mar-22 15:20N 34°23' E 033°27'3 0.4
2017-Mar-22 06:33N 34°23' E 033°31'1 0.2
2017-Mar-22 00:30N 34°24' E 033°32'0 0.2
2017-Mar-21 23:31N 34°24' E 033°32'0 0.2
2017-Mar-21 22:30N 34°24' E 033°31'0 0.2
2017-Mar-21 21:33N 34°24' E 033°31'0 0.2
2017-Mar-21 20:33N 34°24' E 033°31'0 0.3
2017-Mar-21 19:33N 34°24' E 033°30'0 0.3
2017-Mar-21 18:21N 34°24' E 033°30'1 0.4
2017-Mar-21 15:31N 34°23' E 033°29'14 0.7
2017-Mar-20 18:33N 34°21' E 033°12'1 0.8
2017-Mar-20 17:30N 34°21' E 033°11'6 3.0
2017-Mar-20 15:33N 34°26' E 033°15'6 6.1
2017-Mar-20 14:33N 34°30' E 033°21'3 2.6
2017-Mar-20 13:33N 34°32' E 033°23'1 1.0
2017-Mar-20 12:33N 34°31' E 033°22'1 0.9
2017-Mar-20 11:30N 34°31' E 033°21'1 0.8
2017-Mar-20 10:33N 34°30' E 033°20'1 0.8
2017-Mar-20 09:33N 34°29' E 033°20'1 0.8
2017-Mar-20 08:33N 34°29' E 033°19'1 0.8
2017-Mar-20 07:32N 34°28' E 033°18'  
Track history (hours):
 
Tides and Currents Weather Stations Pressure Air Temp Water Temp Dewpoint Dewpoint Depression Visibility Wind Speed Wind Dir Waves Ship Positions

Cape Balder

Last reported at 2017-Mar-26 17:11 UTC. Time now 2017-Mar-28 21:39 UTC.
Position N 31°28' E 032°19'.

Length 274 m; draft 16.8 m.

Type: Ship. MMSI: 538005854.

Date/timePositionNaut miles runAvg speedWind from/ knotsBaromVisibWave heightAir tempDewpointWater temp
2017-Mar-26 17:11N 31°28' E 032°19'0 0.0
2017-Mar-26 12:30N 31°28' E 032°20'85 6.1
2017-Mar-25 22:33N 32°49' E 032°52'1913.1
2017-Mar-25 21:07N 33°08' E 032°56'713.1
2017-Mar-25 20:33N 33°15' E 032°58'2713.2
2017-Mar-25 18:33N 33°41' E 033°05'1313.2
2017-Mar-25 17:32N 33°54' E 033°08'1313.1
2017-Mar-25 16:34N 34°06' E 033°12'1313.0
2017-Mar-25 15:33N 34°19' E 033°15'9 8.4
2017-Mar-25 14:32N 34°27' E 033°17'0 0.2
2017-Mar-25 13:32N 34°27' E 033°17'0 0.1
2017-Mar-25 12:31N 34°27' E 033°17'1 1.1
2017-Mar-25 11:31N 34°27' E 033°16'4 3.6
2017-Mar-25 10:32N 34°24' E 033°14'2 1.6
2017-Mar-25 09:24N 34°22' E 033°12'1 0.6
2017-Mar-25 08:33N 34°22' E 033°13'1 0.5
2017-Mar-25 07:33N 34°22' E 033°13'1 0.5
2017-Mar-25 06:20N 34°22' E 033°14'0 0.5
2017-Mar-25 05:33N 34°21' E 033°14'0 0.4
2017-Mar-25 04:33N 34°21' E 033°14'0 0.3
2017-Mar-25 03:33N 34°21' E 033°15'0 0.1
2017-Mar-25 02:25N 34°21' E 033°15'0 0.1
2017-Mar-25 00:33N 34°21' E 033°15'0 0.1
2017-Mar-24 23:23N 34°21' E 033°15'4 1.4
2017-Mar-24 20:26N 34°25' E 033°14'3 3.8
2017-Mar-24 19:34N 34°28' E 033°13'3 2.6
2017-Mar-24 18:31N 34°31' E 033°13'0 0.1
2017-Mar-24 17:33N 34°31' E 033°13'0 0.2
2017-Mar-24 16:33N 34°30' E 033°13'0 0.3
2017-Mar-24 15:33N 34°30' E 033°13'0 0.4
2017-Mar-24 14:34N 34°30' E 033°13'1 0.6
2017-Mar-24 13:33N 34°29' E 033°13'1 0.7
2017-Mar-24 12:33N 34°29' E 033°14'1 0.6
2017-Mar-24 11:33N 34°28' E 033°14'1 1.2
2017-Mar-24 10:34N 34°27' E 033°14'4 3.4
2017-Mar-24 09:27N 34°23' E 033°15'4 2.3
2017-Mar-24 07:33N 34°19' E 033°16'5 4.0
2017-Mar-24 06:20N 34°24' E 033°14'3 4.4
2017-Mar-24 05:33N 34°27' E 033°13'2 2.0
2017-Mar-24 04:28N 34°29' E 033°14'2 2.5
2017-Mar-24 03:33N 34°30' E 033°17'10 9.6
2017-Mar-24 02:33N 34°21' E 033°19'0 0.3
2017-Mar-24 01:33N 34°21' E 033°19'0 0.2
2017-Mar-24 00:33N 34°21' E 033°19'0 0.1
2017-Mar-23 23:34N 34°21' E 033°19'0 0.1
2017-Mar-23 22:32N 34°21' E 033°19'0 0.3
2017-Mar-23 21:33N 34°21' E 033°19'0 0.2
2017-Mar-23 20:33N 34°22' E 033°19'6 0.4
2017-Mar-23 03:31N 34°28' E 033°21'4 0.5
2017-Mar-22 19:33N 34°26' E 033°25'2 0.7
2017-Mar-22 16:32N 34°24' E 033°26'1 0.7
2017-Mar-22 15:20N 34°23' E 033°27'3 0.4
2017-Mar-22 06:33N 34°23' E 033°31'1 0.2
2017-Mar-22 00:30N 34°24' E 033°32'0 0.2
2017-Mar-21 23:31N 34°24' E 033°32'0 0.2
2017-Mar-21 22:30N 34°24' E 033°31'0 0.2
2017-Mar-21 21:33N 34°24' E 033°31'0 0.2
2017-Mar-21 20:33N 34°24' E 033°31'0 0.3
2017-Mar-21 19:33N 34°24' E 033°30'0 0.3
2017-Mar-21 18:21N 34°24' E 033°30'1 0.4
2017-Mar-21 15:31N 34°23' E 033°29'14 0.7
2017-Mar-20 18:33N 34°21' E 033°12'1 0.8
2017-Mar-20 17:30N 34°21' E 033°11'6 3.0
2017-Mar-20 15:33N 34°26' E 033°15'6 6.1
2017-Mar-20 14:33N 34°30' E 033°21'3 2.6
2017-Mar-20 13:33N 34°32' E 033°23'1 1.0
2017-Mar-20 12:33N 34°31' E 033°22'1 0.9
2017-Mar-20 11:30N 34°31' E 033°21'1 0.8
2017-Mar-20 10:33N 34°30' E 033°20'1 0.8
2017-Mar-20 09:33N 34°29' E 033°20'1 0.8
2017-Mar-20 08:33N 34°29' E 033°19'1 0.8
2017-Mar-20 07:32N 34°28' E 033°18'  

Dump ship's entire track history